sensor_id;sensor_type;location;lat;lon;timestamp;pressure;altitude;pressure_sealevel;temperature;humidity
61014;BME280;46899;47.542;19.082;2022-11-20T00:02:48;100229.50;;;1.18;100.00
61014;BME280;46899;47.542;19.082;2022-11-20T00:05:51;100210.72;;;1.22;100.00
61014;BME280;46899;47.542;19.082;2022-11-20T00:08:54;100211.56;;;1.26;100.00
61014;BME280;46899;47.542;19.082;2022-11-20T00:11:57;100208.97;;;1.11;100.00
61014;BME280;46899;47.542;19.082;2022-11-20T00:14:59;100193.63;;;1.08;100.00
61014;BME280;46899;47.542;19.082;2022-11-20T00:18:02;100203.88;;;1.15;100.00
61014;BME280;46899;47.542;19.082;2022-11-20T00:21:05;100214.13;;;1.08;100.00
61014;BME280;46899;47.542;19.082;2022-11-20T00:24:08;100200.47;;;1.10;100.00
61014;BME280;46899;47.542;19.082;2022-11-20T00:27:12;100206.44;;;0.99;100.00
61014;BME280;46899;47.542;19.082;2022-11-20T00:30:14;100214.94;;;1.04;100.00
61014;BME280;46899;47.542;19.082;2022-11-20T00:33:17;100228.62;;;1.06;100.00
61014;BME280;46899;47.542;19.082;2022-11-20T00:36:23;100206.41;;;1.11;100.00
61014;BME280;46899;47.542;19.082;2022-11-20T00:39:26;100212.44;;;1.08;100.00
61014;BME280;46899;47.542;19.082;2022-11-20T00:42:28;100231.19;;;1.13;100.00
61014;BME280;46899;47.542;19.082;2022-11-20T00:45:31;100250.00;;;1.12;100.00
61014;BME280;46899;47.542;19.082;2022-11-20T00:48:34;100246.56;;;1.13;100.00
61014;BME280;46899;47.542;19.082;2022-11-20T00:51:36;100234.59;;;1.11;100.00
61014;BME280;46899;47.542;19.082;2022-11-20T00:54:38;100225.22;;;1.11;100.00
61014;BME280;46899;47.542;19.082;2022-11-20T00:57:41;100219.25;;;1.09;100.00
61014;BME280;46899;47.542;19.082;2022-11-20T01:00:43;100215.84;;;1.06;100.00
61014;BME280;46899;47.542;19.082;2022-11-20T01:03:47;100213.22;;;0.97;100.00
61014;BME280;46899;47.542;19.082;2022-11-20T01:07:03;100223.50;;;0.98;100.00
61014;BME280;46899;47.542;19.082;2022-11-20T01:10:06;100219.22;;;1.00;100.00
61014;BME280;46899;47.542;19.082;2022-11-20T01:13:08;100220.97;;;1.01;100.00
61014;BME280;46899;47.542;19.082;2022-11-20T01:16:31;100222.63;;;0.95;100.00
61014;BME280;46899;47.542;19.082;2022-11-20T01:19:34;100214.13;;;1.09;100.00
61014;BME280;46899;47.542;19.082;2022-11-20T01:22:36;100220.91;;;0.97;100.00
61014;BME280;46899;47.542;19.082;2022-11-20T01:25:38;100223.50;;;1.01;100.00
61014;BME280;46899;47.542;19.082;2022-11-20T01:28:41;100232.88;;;0.99;100.00
61014;BME280;46899;47.542;19.082;2022-11-20T01:31:44;100225.22;;;1.01;100.00
61014;BME280;46899;47.542;19.082;2022-11-20T01:34:46;100219.22;;;0.97;100.00
61014;BME280;46899;47.542;19.082;2022-11-20T01:37:49;100217.50;;;0.99;100.00
61014;BME280;46899;47.542;19.082;2022-11-20T01:40:55;100203.00;;;1.07;100.00
61014;BME280;46899;47.542;19.082;2022-11-20T01:43:58;100186.78;;;1.11;100.00
61014;BME280;46899;47.542;19.082;2022-11-20T01:47:01;100185.06;;;1.04;100.00
61014;BME280;46899;47.542;19.082;2022-11-20T01:50:12;100185.09;;;1.07;100.00
61014;BME280;46899;47.542;19.082;2022-11-20T01:53:17;100184.22;;;1.07;100.00
61014;BME280;46899;47.542;19.082;2022-11-20T01:56:20;100188.50;;;1.21;100.00
61014;BME280;46899;47.542;19.082;2022-11-20T01:59:23;100178.25;;;1.11;100.00
61014;BME280;46899;47.542;19.082;2022-11-20T02:02:28;100181.66;;;1.11;100.00
61014;BME280;46899;47.542;19.082;2022-11-20T02:05:38;100183.37;;;1.23;100.00
61014;BME280;46899;47.542;19.082;2022-11-20T02:08:40;100180.81;;;1.23;100.00
61014;BME280;46899;47.542;19.082;2022-11-20T02:11:43;100171.41;;;1.20;100.00
61014;BME280;46899;47.542;19.082;2022-11-20T02:14:45;100177.41;;;1.24;100.00
61014;BME280;46899;47.542;19.082;2022-11-20T02:17:48;100179.13;;;1.26;100.00
61014;BME280;46899;47.542;19.082;2022-11-20T02:20:52;100187.66;;;1.36;100.00
61014;BME280;46899;47.542;19.082;2022-11-20T02:24:03;100185.94;;;1.33;100.00
61014;BME280;46899;47.542;19.082;2022-11-20T02:27:07;100185.09;;;1.36;100.00
61014;BME280;46899;47.542;19.082;2022-11-20T02:30:11;100187.62;;;1.34;100.00
61014;BME280;46899;47.542;19.082;2022-11-20T02:33:13;100197.03;;;1.35;100.00
61014;BME280;46899;47.542;19.082;2022-11-20T02:36:16;100185.09;;;1.41;100.00
61014;BME280;46899;47.542;19.082;2022-11-20T02:39:18;100176.53;;;1.42;100.00
61014;BME280;46899;47.542;19.082;2022-11-20T02:42:21;100164.56;;;1.34;100.00
61014;BME280;46899;47.542;19.082;2022-11-20T02:45:24;100162.03;;;1.44;100.00
61014;BME280;46899;47.542;19.082;2022-11-20T02:48:27;100163.69;;;1.46;100.00
61014;BME280;46899;47.542;19.082;2022-11-20T02:51:34;100165.41;;;1.44;100.00
61014;BME280;46899;47.542;19.082;2022-11-20T02:54:37;100159.47;;;1.31;100.00
61014;BME280;46899;47.542;19.082;2022-11-20T02:57:39;100160.31;;;1.35;100.00
61014;BME280;46899;47.542;19.082;2022-11-20T03:00:41;100159.47;;;1.31;100.00
61014;BME280;46899;47.542;19.082;2022-11-20T03:03:44;100158.59;;;1.38;100.00
61014;BME280;46899;47.542;19.082;2022-11-20T03:06:46;100150.94;;;1.29;100.00
61014;BME280;46899;47.542;19.082;2022-11-20T03:09:49;100148.38;;;1.26;100.00
61014;BME280;46899;47.542;19.082;2022-11-20T03:12:54;100150.06;;;1.24;100.00
61014;BME280;46899;47.542;19.082;2022-11-20T03:15:57;100143.22;;;1.31;100.00
61014;BME280;46899;47.542;19.082;2022-11-20T03:19:00;100146.63;;;1.37;100.00
61014;BME280;46899;47.542;19.082;2022-11-20T03:22:02;100140.66;;;1.32;100.00
61014;BME280;46899;47.542;19.082;2022-11-20T03:25:05;100153.50;;;1.29;100.00
61014;BME280;46899;47.542;19.082;2022-11-20T03:28:07;100156.91;;;1.28;100.00
61014;BME280;46899;47.542;19.082;2022-11-20T03:31:11;100170.56;;;1.38;100.00
61014;BME280;46899;47.542;19.082;2022-11-20T03:34:14;100177.38;;;1.33;100.00
61014;BME280;46899;47.542;19.082;2022-11-20T03:37:17;100183.37;;;1.26;100.00
61014;BME280;46899;47.542;19.082;2022-11-20T03:40:19;100170.56;;;1.43;100.00
61014;BME280;46899;47.542;19.082;2022-11-20T03:43:21;100164.59;;;1.44;100.00
61014;BME280;46899;47.542;19.082;2022-11-20T03:46:24;100154.31;;;1.45;100.00
61014;BME280;46899;47.542;19.082;2022-11-20T03:49:27;100144.06;;;1.41;100.00
61014;BME280;46899;47.542;19.082;2022-11-20T03:52:29;100152.59;;;1.43;100.00
61014;BME280;46899;47.542;19.082;2022-11-20T03:55:32;100156.88;;;1.41;100.00
61014;BME280;46899;47.542;19.082;2022-11-20T03:58:35;100149.22;;;1.44;100.00
61014;BME280;46899;47.542;19.082;2022-11-20T04:01:44;100142.34;;;1.39;100.00
61014;BME280;46899;47.542;19.082;2022-11-20T04:04:50;100149.19;;;1.42;100.00
61014;BME280;46899;47.542;19.082;2022-11-20T04:07:53;100162.84;;;1.39;100.00
61014;BME280;46899;47.542;19.082;2022-11-20T04:10:55;100154.31;;;1.48;100.00
61014;BME280;46899;47.542;19.082;2022-11-20T04:13:59;100146.63;;;1.41;100.00
61014;BME280;46899;47.542;19.082;2022-11-20T04:17:01;100141.50;;;1.50;100.00
61014;BME280;46899;47.542;19.082;2022-11-20T04:20:04;100140.66;;;1.51;100.00
61014;BME280;46899;47.542;19.082;2022-11-20T04:23:06;100140.62;;;1.46;100.00
61014;BME280;46899;47.542;19.082;2022-11-20T04:26:09;100130.38;;;1.48;100.00
61014;BME280;46899;47.542;19.082;2022-11-20T04:29:12;100120.94;;;1.56;100.00
61014;BME280;46899;47.542;19.082;2022-11-20T04:32:15;100121.81;;;1.49;100.00
61014;BME280;46899;47.542;19.082;2022-11-20T04:35:17;100115.88;;;1.45;100.00
61014;BME280;46899;47.542;19.082;2022-11-20T04:38:19;100115.00;;;1.46;100.00
61014;BME280;46899;47.542;19.082;2022-11-20T04:41:23;100115.84;;;1.57;100.00
61014;BME280;46899;47.542;19.082;2022-11-20T04:44:25;100121.81;;;1.62;100.00
61014;BME280;46899;47.542;19.082;2022-11-20T04:47:27;100125.25;;;1.60;100.00
61014;BME280;46899;47.542;19.082;2022-11-20T04:50:30;100129.53;;;1.58;100.00
61014;BME280;46899;47.542;19.082;2022-11-20T04:53:32;100123.53;;;1.50;100.00
61014;BME280;46899;47.542;19.082;2022-11-20T04:56:35;100098.75;;;1.56;100.00
61014;BME280;46899;47.542;19.082;2022-11-20T04:59:37;100091.87;;;1.69;100.00
61014;BME280;46899;47.542;19.082;2022-11-20T05:02:39;100097.00;;;1.66;100.00
61014;BME280;46899;47.542;19.082;2022-11-20T05:05:42;100093.63;;;1.56;100.00
61014;BME280;46899;47.542;19.082;2022-11-20T05:08:45;100095.34;;;1.57;100.00
61014;BME280;46899;47.542;19.082;2022-11-20T05:11:47;100097.87;;;1.59;100.00
61014;BME280;46899;47.542;19.082;2022-11-20T05:14:52;100097.84;;;1.68;100.00
61014;BME280;46899;47.542;19.082;2022-11-20T05:17:55;100115.00;;;1.60;100.00
61014;BME280;46899;47.542;19.082;2022-11-20T05:21:00;100108.97;;;1.67;100.00
61014;BME280;46899;47.542;19.082;2022-11-20T05:24:03;100092.72;;;1.71;100.00
61014;BME280;46899;47.542;19.082;2022-11-20T05:27:06;100102.13;;;1.63;100.00
61014;BME280;46899;47.542;19.082;2022-11-20T05:30:09;100080.78;;;1.67;100.00
61014;BME280;46899;47.542;19.082;2022-11-20T05:33:11;100066.22;;;1.70;100.00
61014;BME280;46899;47.542;19.082;2022-11-20T05:36:14;100061.97;;;1.66;100.00
61014;BME280;46899;47.542;19.082;2022-11-20T05:39:17;100063.69;;;1.63;100.00
61014;BME280;46899;47.542;19.082;2022-11-20T05:42:19;100062.81;;;1.68;100.00
61014;BME280;46899;47.542;19.082;2022-11-20T05:45:34;100068.81;;;1.64;100.00
61014;BME280;46899;47.542;19.082;2022-11-20T05:48:37;100072.22;;;1.69;100.00
61014;BME280;46899;47.542;19.082;2022-11-20T05:51:40;100073.94;;;1.63;100.00
61014;BME280;46899;47.542;19.082;2022-11-20T05:54:42;100085.88;;;1.68;100.00
61014;BME280;46899;47.542;19.082;2022-11-20T05:57:45;100085.88;;;1.68;100.00
61014;BME280;46899;47.542;19.082;2022-11-20T06:00:48;100094.47;;;1.60;100.00
61014;BME280;46899;47.542;19.082;2022-11-20T06:03:50;100105.56;;;1.62;100.00
61014;BME280;46899;47.542;19.082;2022-11-20T06:06:53;100096.16;;;1.67;100.00
61014;BME280;46899;47.542;19.082;2022-11-20T06:09:55;100093.56;;;1.76;100.00
61014;BME280;46899;47.542;19.082;2022-11-20T06:12:58;100104.69;;;1.76;100.00
61014;BME280;46899;47.542;19.082;2022-11-20T06:16:01;100097.81;;;1.77;100.00
61014;BME280;46899;47.542;19.082;2022-11-20T06:19:03;100108.09;;;1.81;100.00
61014;BME280;46899;47.542;19.082;2022-11-20T06:22:06;100097.00;;;1.72;100.00
61014;BME280;46899;47.542;19.082;2022-11-20T06:25:08;100096.12;;;1.73;100.00
61014;BME280;46899;47.542;19.082;2022-11-20T06:28:10;100078.19;;;1.74;100.00
61014;BME280;46899;47.542;19.082;2022-11-20T06:31:13;100086.72;;;1.81;100.00
61014;BME280;46899;47.542;19.082;2022-11-20T06:34:16;100103.78;;;1.83;100.00
61014;BME280;46899;47.542;19.082;2022-11-20T06:37:18;100111.44;;;1.91;100.00
61014;BME280;46899;47.542;19.082;2022-11-20T06:40:21;100121.69;;;2.00;100.00
61014;BME280;46899;47.542;19.082;2022-11-20T06:43:24;100124.25;;;1.91;100.00
61014;BME280;46899;47.542;19.082;2022-11-20T06:46:27;100126.78;;;2.03;100.00
61014;BME280;46899;47.542;19.082;2022-11-20T06:49:29;100137.09;;;2.00;100.00
61014;BME280;46899;47.542;19.082;2022-11-20T06:52:32;100145.59;;;2.10;100.00
61014;BME280;46899;47.542;19.082;2022-11-20T06:55:34;100130.12;;;2.17;100.00
61014;BME280;46899;47.542;19.082;2022-11-20T06:58:37;100136.13;;;2.18;100.00
61014;BME280;46899;47.542;19.082;2022-11-20T07:01:40;100132.69;;;2.17;100.00
61014;BME280;46899;47.542;19.082;2022-11-20T07:04:42;100124.94;;;2.29;100.00
61014;BME280;46899;47.542;19.082;2022-11-20T07:07:44;100124.06;;;2.36;100.00
61014;BME280;46899;47.542;19.082;2022-11-20T07:10:56;100118.84;;;2.48;100.00
61014;BME280;46899;47.542;19.082;2022-11-20T07:13:59;100120.56;;;2.48;100.00
61014;BME280;46899;47.542;19.082;2022-11-20T07:17:01;100117.91;;;2.60;100.00
61014;BME280;46899;47.542;19.082;2022-11-20T07:20:03;100129.03;;;2.62;100.00
61014;BME280;46899;47.542;19.082;2022-11-20T07:23:06;100124.69;;;2.70;100.00
61014;BME280;46899;47.542;19.082;2022-11-20T07:26:09;100139.25;;;2.66;100.00
61014;BME280;46899;47.542;19.082;2022-11-20T07:29:12;100152.06;;;2.75;100.00
61014;BME280;46899;47.542;19.082;2022-11-20T07:32:14;100152.81;;;2.91;100.00
61014;BME280;46899;47.542;19.082;2022-11-20T07:35:17;100149.37;;;2.88;100.00
61014;BME280;46899;47.542;19.082;2022-11-20T07:38:19;100158.91;;;2.76;100.00
61014;BME280;46899;47.542;19.082;2022-11-20T07:41:22;100159.72;;;2.82;100.00
61014;BME280;46899;47.542;19.082;2022-11-20T07:44:24;100151.97;;;2.86;100.00
61014;BME280;46899;47.542;19.082;2022-11-20T07:47:27;100148.56;;;2.86;100.00
61014;BME280;46899;47.542;19.082;2022-11-20T07:50:29;100149.37;;;2.88;100.00
61014;BME280;46899;47.542;19.082;2022-11-20T07:53:32;100150.28;;;2.84;100.00
61014;BME280;46899;47.542;19.082;2022-11-20T07:56:34;100157.06;;;2.97;100.00
61014;BME280;46899;47.542;19.082;2022-11-20T07:59:37;100152.75;;;2.97;100.00
61014;BME280;46899;47.542;19.082;2022-11-20T08:02:40;100154.38;;;3.07;100.00
61014;BME280;46899;47.542;19.082;2022-11-20T08:05:43;100156.09;;;3.10;100.00
61014;BME280;46899;47.542;19.082;2022-11-20T08:08:45;100145.72;;;3.19;100.00
61014;BME280;46899;47.542;19.082;2022-11-20T08:11:48;100134.53;;;3.23;100.00
61014;BME280;46899;47.542;19.082;2022-11-20T08:15:09;100133.56;;;3.37;100.00
61014;BME280;46899;47.542;19.082;2022-11-20T08:18:14;100126.62;;;3.45;100.00
61014;BME280;46899;47.542;19.082;2022-11-20T08:21:33;100137.78;;;3.46;100.00
61014;BME280;46899;47.542;19.082;2022-11-20T08:24:39;100135.97;;;3.51;100.00
61014;BME280;46899;47.542;19.082;2022-11-20T08:27:41;100147.00;;;3.64;100.00
61014;BME280;46899;47.542;19.082;2022-11-20T08:30:44;100147.91;;;3.58;100.00
61014;BME280;46899;47.542;19.082;2022-11-20T08:33:48;100142.41;;;3.91;100.00
61014;BME280;46899;47.542;19.082;2022-11-20T08:36:51;100126.81;;;4.05;100.00
61014;BME280;46899;47.542;19.082;2022-11-20T08:39:53;100133.66;;;4.06;100.00
61014;BME280;46899;47.542;19.082;2022-11-20T08:42:59;100128.41;;;4.13;100.00
61014;BME280;46899;47.542;19.082;2022-11-20T08:46:01;100146.41;;;4.15;100.00
61014;BME280;46899;47.542;19.082;2022-11-20T08:49:04;100147.28;;;4.15;100.00
61014;BME280;46899;47.542;19.082;2022-11-20T08:52:06;100157.38;;;4.31;100.00
61014;BME280;46899;47.542;19.082;2022-11-20T08:55:09;100156.41;;;4.39;100.00
61014;BME280;46899;47.542;19.082;2022-11-20T08:58:11;100144.47;;;4.32;100.00
61014;BME280;46899;47.542;19.082;2022-11-20T09:01:15;100148.41;;;4.59;100.00
61014;BME280;46899;47.542;19.082;2022-11-20T09:04:17;100156.19;;;4.56;100.00
61014;BME280;46899;47.542;19.082;2022-11-20T09:07:19;100154.66;;;4.41;100.00
61014;BME280;46899;47.542;19.082;2022-11-20T09:10:40;100161.53;;;4.42;100.00
61014;BME280;46899;47.542;19.082;2022-11-20T09:13:43;100160.66;;;4.42;100.00
61014;BME280;46899;47.542;19.082;2022-11-20T09:16:45;100160.78;;;4.33;100.00
61014;BME280;46899;47.542;19.082;2022-11-20T09:19:48;100170.19;;;4.37;100.00
61014;BME280;46899;47.542;19.082;2022-11-20T09:22:50;100176.94;;;4.44;100.00
61014;BME280;46899;47.542;19.082;2022-11-20T09:25:53;100177.84;;;4.41;100.00
61014;BME280;46899;47.542;19.082;2022-11-20T09:28:57;100176.25;;;4.33;100.00
61014;BME280;46899;47.542;19.082;2022-11-20T09:32:00;100183.37;;;4.11;100.00
61014;BME280;46899;47.542;19.082;2022-11-20T09:35:03;100170.31;;;4.26;100.00
61014;BME280;46899;47.542;19.082;2022-11-20T09:38:06;100173.81;;;4.21;100.00
61014;BME280;46899;47.542;19.082;2022-11-20T09:54:21;100147.34;;;4.72;100.00
61014;BME280;46899;47.542;19.082;2022-11-20T09:57:27;100142.78;;;4.92;100.00
61014;BME280;46899;47.542;19.082;2022-11-20T10:00:30;100148.75;;;4.94;100.00
61014;BME280;46899;47.542;19.082;2022-11-20T10:03:42;100137.31;;;5.10;100.00
61014;BME280;46899;47.542;19.082;2022-11-20T10:06:56;100137.12;;;5.22;100.00
61014;BME280;46899;47.542;19.082;2022-11-20T10:26:43;100099.59;;;5.98;99.77
61014;BME280;46899;47.542;19.082;2022-11-20T10:29:55;100096.06;;;6.02;95.31
61014;BME280;46899;47.542;19.082;2022-11-20T10:33:05;100081.13;;;6.16;96.57
61014;BME280;46899;47.542;19.082;2022-11-20T10:36:23;100081.94;;;6.18;94.23
61014;BME280;46899;47.542;19.082;2022-11-20T10:39:35;100082.09;;;6.12;95.13
61014;BME280;46899;47.542;19.082;2022-11-20T10:48:51;100084.53;;;6.56;96.14
61014;BME280;46899;47.542;19.082;2022-11-20T10:55:33;100088.44;;;6.72;93.46
61014;BME280;46899;47.542;19.082;2022-11-20T11:02:14;100088.25;;;6.43;93.60
61014;BME280;46899;47.542;19.082;2022-11-20T11:08:18;100090.38;;;6.26;94.24
61014;BME280;46899;47.542;19.082;2022-11-20T11:11:26;100102.84;;;6.47;92.37
61014;BME280;46899;47.542;19.082;2022-11-20T11:14:29;100105.41;;;6.47;92.69
61014;BME280;46899;47.542;19.082;2022-11-20T11:17:33;100113.06;;;6.52;91.82
61014;BME280;46899;47.542;19.082;2022-11-20T11:20:40;100122.28;;;6.63;92.89
61014;BME280;46899;47.542;19.082;2022-11-20T11:24:02;100112.81;;;6.62;91.91
61014;BME280;46899;47.542;19.082;2022-11-20T11:27:25;100104.28;;;6.59;91.50
61014;BME280;46899;47.542;19.082;2022-11-20T11:30:28;100111.78;;;6.69;90.62
61014;BME280;46899;47.542;19.082;2022-11-20T11:33:32;100119.13;;;6.87;89.54
61014;BME280;46899;47.542;19.082;2022-11-20T11:36:37;100123.50;;;6.84;90.47
61014;BME280;46899;47.542;19.082;2022-11-20T11:39:41;100114.66;;;6.93;90.66
61014;BME280;46899;47.542;19.082;2022-11-20T11:42:44;100106.19;;;6.87;92.48
61014;BME280;46899;47.542;19.082;2022-11-20T11:45:52;100094.94;;;6.90;90.61
61014;BME280;46899;47.542;19.082;2022-11-20T11:52:15;100095.34;;;6.72;89.23
61014;BME280;46899;47.542;19.082;2022-11-20T11:59:01;100085.50;;;6.12;93.02
61014;BME280;46899;47.542;19.082;2022-11-20T12:01:58;100082.62;;;5.85;94.50
61014;BME280;46899;47.542;19.082;2022-11-20T12:05:18;100072.47;;;5.76;97.22
61014;BME280;46899;47.542;19.082;2022-11-20T12:08:32;100069.78;;;5.80;97.57
61014;BME280;46899;47.542;19.082;2022-11-20T12:11:56;100079.84;;;5.94;98.30
61014;BME280;46899;47.542;19.082;2022-11-20T12:15:00;100069.44;;;6.00;97.46
61014;BME280;46899;47.542;19.082;2022-11-20T12:18:08;100076.25;;;6.02;97.65
61014;BME280;46899;47.542;19.082;2022-11-20T12:21:31;100082.00;;;6.15;96.62
61014;BME280;46899;47.542;19.082;2022-11-20T12:24:40;100088.72;;;6.22;95.91
61014;BME280;46899;47.542;19.082;2022-11-20T12:28:07;100082.53;;;6.31;96.97
61014;BME280;46899;47.542;19.082;2022-11-20T12:35:07;100071.34;;;6.30;97.51
61014;BME280;46899;47.542;19.082;2022-11-20T12:42:26;100058.84;;;6.10;99.07
61014;BME280;46899;47.542;19.082;2022-11-20T12:45:20;100058.84;;;6.12;98.98
61014;BME280;46899;47.542;19.082;2022-11-20T12:51:46;100063.56;;;5.92;98.74
61014;BME280;46899;47.542;19.082;2022-11-20T12:55:42;100069.53;;;5.94;97.80
61014;BME280;46899;47.542;19.082;2022-11-20T13:01:29;100075.66;;;5.90;99.00
61014;BME280;46899;47.542;19.082;2022-11-20T13:08:00;100077.50;;;5.82;100.00
61014;BME280;46899;47.542;19.082;2022-11-20T13:17:33;100080.75;;;5.93;99.89
61014;BME280;46899;47.542;19.082;2022-11-20T13:20:36;100085.69;;;6.05;99.40
61014;BME280;46899;47.542;19.082;2022-11-20T13:23:43;100086.38;;;6.11;99.11
61014;BME280;46899;47.542;19.082;2022-11-20T13:26:46;100075.41;;;6.02;100.00
61014;BME280;46899;47.542;19.082;2022-11-20T13:33:21;100068.47;;;6.04;99.15
61014;BME280;46899;47.542;19.082;2022-11-20T13:36:28;100068.41;;;6.07;99.93
61014;BME280;46899;47.542;19.082;2022-11-20T13:39:32;100066.12;;;5.92;100.00
61014;BME280;46899;47.542;19.082;2022-11-20T13:42:37;100065.31;;;5.90;99.99
61014;BME280;46899;47.542;19.082;2022-11-20T13:45:40;100056.12;;;5.77;100.00
61014;BME280;46899;47.542;19.082;2022-11-20T13:48:43;100046.78;;;5.70;100.00
61014;BME280;46899;47.542;19.082;2022-11-20T13:51:47;100037.44;;;5.64;100.00
61014;BME280;46899;47.542;19.082;2022-11-20T13:54:56;100044.47;;;5.56;100.00
61014;BME280;46899;47.542;19.082;2022-11-20T14:01:16;100043.31;;;5.71;100.00
61014;BME280;46899;47.542;19.082;2022-11-20T14:04:21;100036.72;;;5.58;100.00
61014;BME280;46899;47.542;19.082;2022-11-20T14:07:32;100038.53;;;5.52;100.00
61014;BME280;46899;47.542;19.082;2022-11-20T14:10:37;100048.03;;;5.49;100.00
61014;BME280;46899;47.542;19.082;2022-11-20T14:13:51;100034.38;;;5.45;100.00
61014;BME280;46899;47.542;19.082;2022-11-20T14:20:15;100027.94;;;5.22;100.00
61014;BME280;46899;47.542;19.082;2022-11-20T14:23:25;100031.34;;;5.24;100.00
61014;BME280;46899;47.542;19.082;2022-11-20T14:26:31;100040.91;;;5.17;100.00
61014;BME280;46899;47.542;19.082;2022-11-20T14:29:35;100040.19;;;5.09;100.00
61014;BME280;46899;47.542;19.082;2022-11-20T14:32:38;100036.09;;;4.99;100.00
61014;BME280;46899;47.542;19.082;2022-11-20T14:35:44;100041.31;;;4.95;100.00
61014;BME280;46899;47.542;19.082;2022-11-20T14:38:47;100043.84;;;4.99;100.00
61014;BME280;46899;47.542;19.082;2022-11-20T14:41:53;100049.03;;;4.96;100.00
61014;BME280;46899;47.542;19.082;2022-11-20T14:44:56;100057.59;;;4.98;100.00
61014;BME280;46899;47.542;19.082;2022-11-20T14:47:59;100061.88;;;4.99;100.00
61014;BME280;46899;47.542;19.082;2022-11-20T14:51:01;100064.63;;;4.89;100.00
61014;BME280;46899;47.542;19.082;2022-11-20T14:54:17;100067.47;;;4.72;100.00
61014;BME280;46899;47.542;19.082;2022-11-20T14:57:21;100060.69;;;4.66;100.00
61014;BME280;46899;47.542;19.082;2022-11-20T15:00:24;100068.56;;;4.57;100.00
61014;BME280;46899;47.542;19.082;2022-11-20T15:03:30;100072.16;;;4.47;100.00
61014;BME280;46899;47.542;19.082;2022-11-20T15:06:33;100070.56;;;4.39;100.00
61014;BME280;46899;47.542;19.082;2022-11-20T15:09:35;100073.09;;;4.42;100.00
61014;BME280;46899;47.542;19.082;2022-11-20T15:12:39;100076.66;;;4.32;100.00
61014;BME280;46899;47.542;19.082;2022-11-20T15:15:49;100074.22;;;4.23;100.00
61014;BME280;46899;47.542;19.082;2022-11-20T15:18:52;100087.25;;;4.10;100.00
61014;BME280;46899;47.542;19.082;2022-11-20T15:21:54;100087.41;;;3.98;100.00
61014;BME280;46899;47.542;19.082;2022-11-20T15:24:57;100078.91;;;3.93;100.00
61014;BME280;46899;47.542;19.082;2022-11-20T15:27:59;100077.97;;;3.99;100.00
61014;BME280;46899;47.542;19.082;2022-11-20T15:31:02;100081.53;;;3.90;100.00
61014;BME280;46899;47.542;19.082;2022-11-20T15:34:05;100082.59;;;3.74;100.00
61014;BME280;46899;47.542;19.082;2022-11-20T15:37:09;100082.59;;;3.74;100.00
61014;BME280;46899;47.542;19.082;2022-11-20T15:40:12;100083.47;;;3.72;100.00
61014;BME280;46899;47.542;19.082;2022-11-20T15:43:14;100080.97;;;3.67;100.00
61014;BME280;46899;47.542;19.082;2022-11-20T15:46:17;100080.97;;;3.66;100.00
61014;BME280;46899;47.542;19.082;2022-11-20T15:49:24;100089.44;;;3.74;100.00
61014;BME280;46899;47.542;19.082;2022-11-20T15:52:27;100093.75;;;3.73;100.00
61014;BME280;46899;47.542;19.082;2022-11-20T15:55:43;100098.09;;;3.65;100.00
61014;BME280;46899;47.542;19.082;2022-11-20T15:58:45;100092.22;;;3.57;100.00
61014;BME280;46899;47.542;19.082;2022-11-20T16:01:47;100089.62;;;3.60;100.00
61014;BME280;46899;47.542;19.082;2022-11-20T16:04:50;100090.38;;;3.67;100.00
61014;BME280;46899;47.542;19.082;2022-11-20T16:07:52;100094.84;;;3.53;100.00
61014;BME280;46899;47.542;19.082;2022-11-20T16:10:55;100094.66;;;3.69;100.00
61014;BME280;46899;47.542;19.082;2022-11-20T16:13:57;100087.66;;;3.80;100.00
61014;BME280;46899;47.542;19.082;2022-11-20T16:17:18;100090.22;;;3.80;100.00
61014;BME280;46899;47.542;19.082;2022-11-20T16:20:41;100087.78;;;3.70;100.00
61014;BME280;46899;47.542;19.082;2022-11-20T16:23:43;100078.19;;;3.82;100.00
61014;BME280;46899;47.542;19.082;2022-11-20T16:26:46;100078.19;;;3.84;100.00
61014;BME280;46899;47.542;19.082;2022-11-20T16:29:48;100073.12;;;3.75;100.00
61014;BME280;46899;47.542;19.082;2022-11-20T16:32:51;100078.34;;;3.72;100.00
61014;BME280;46899;47.542;19.082;2022-11-20T16:35:53;100080.03;;;3.74;100.00
61014;BME280;46899;47.542;19.082;2022-11-20T16:38:56;100081.84;;;3.63;100.00
61014;BME280;46899;47.542;19.082;2022-11-20T16:42:02;100080.16;;;3.62;100.00
61014;BME280;46899;47.542;19.082;2022-11-20T16:45:05;100076.75;;;3.59;100.00
61014;BME280;46899;47.542;19.082;2022-11-20T16:48:10;100079.47;;;3.45;100.00
61014;BME280;46899;47.542;19.082;2022-11-20T16:51:13;100075.19;;;3.49;100.00
61014;BME280;46899;47.542;19.082;2022-11-20T16:54:15;100059.72;;;3.50;100.00
61014;BME280;46899;47.542;19.082;2022-11-20T16:57:22;100064.94;;;3.42;100.00
61014;BME280;46899;47.542;19.082;2022-11-20T17:00:25;100070.28;;;3.24;100.00
61014;BME280;46899;47.542;19.082;2022-11-20T17:03:28;100063.56;;;3.10;100.00
61014;BME280;46899;47.542;19.082;2022-11-20T17:06:31;100060.22;;;3.03;100.00
61014;BME280;46899;47.542;19.082;2022-11-20T17:09:34;100059.44;;;2.91;100.00
61014;BME280;46899;47.542;19.082;2022-11-20T17:12:36;100057.72;;;2.94;100.00
61014;BME280;46899;47.542;19.082;2022-11-20T17:15:39;100056.09;;;2.84;100.00
61014;BME280;46899;47.542;19.082;2022-11-20T17:18:41;100046.81;;;2.66;100.00
61014;BME280;46899;47.542;19.082;2022-11-20T17:21:45;100046.91;;;2.53;100.00